Metar værinformasjon om luftfart     EFOU Oulu Airport
Temperatur
-5°C Temperatur
-6°C Duggpunkt
93% Luftfuktighet



Vind
3 M/S
6 MPT
10 KM/T
5 KNP



320°
NV
Nåværende forhold

Lys Snø Lys Snø
Trykk 1002.92 (hPa) - 29.62 (inHg)
Sikt 5.6 (mil) - 9 (km)
Flyplass
Flyplass-kode EFOU

Plassering: Oulu Airport
Avstand: 83 (km)

Metar:
EFOU 020820Z AUTO 32005KT 9000 -SN OVC020 M05/M06 Q1003

Tid: 02-02-2023 10:20 EET